sensor_id;sensor_type;location;lat;lon;timestamp;temperature;humidity
19732;DHT22;10017;54.350;18.532;2023-03-14T00:01:07;9.40;99.90
19732;DHT22;10017;54.350;18.532;2023-03-14T00:03:39;9.40;99.90
19732;DHT22;10017;54.350;18.532;2023-03-14T00:06:12;9.30;99.90
19732;DHT22;10017;54.350;18.532;2023-03-14T00:08:44;9.30;99.90
19732;DHT22;10017;54.350;18.532;2023-03-14T00:11:17;9.30;99.90
19732;DHT22;10017;54.350;18.532;2023-03-14T00:13:50;9.30;99.90
19732;DHT22;10017;54.350;18.532;2023-03-14T00:16:22;9.30;99.90
19732;DHT22;10017;54.350;18.532;2023-03-14T00:18:54;9.30;99.90
19732;DHT22;10017;54.350;18.532;2023-03-14T00:21:26;9.30;99.90
19732;DHT22;10017;54.350;18.532;2023-03-14T00:24:02;9.30;99.90
19732;DHT22;10017;54.350;18.532;2023-03-14T00:26:34;9.30;99.90
19732;DHT22;10017;54.350;18.532;2023-03-14T00:29:08;9.30;99.90
19732;DHT22;10017;54.350;18.532;2023-03-14T00:31:40;9.30;99.90
19732;DHT22;10017;54.350;18.532;2023-03-14T00:34:12;9.30;99.90
19732;DHT22;10017;54.350;18.532;2023-03-14T00:36:46;9.40;99.90
19732;DHT22;10017;54.350;18.532;2023-03-14T00:39:18;9.30;99.90
19732;DHT22;10017;54.350;18.532;2023-03-14T00:41:52;9.30;99.90
19732;DHT22;10017;54.350;18.532;2023-03-14T00:44:26;9.30;99.90
19732;DHT22;10017;54.350;18.532;2023-03-14T00:46:58;9.30;99.90
19732;DHT22;10017;54.350;18.532;2023-03-14T00:49:32;9.30;99.90
19732;DHT22;10017;54.350;18.532;2023-03-14T00:52:04;9.40;99.90
19732;DHT22;10017;54.350;18.532;2023-03-14T00:54:36;9.40;99.90
19732;DHT22;10017;54.350;18.532;2023-03-14T00:57:08;9.40;99.90
19732;DHT22;10017;54.350;18.532;2023-03-14T00:59:39;9.40;99.90
19732;DHT22;10017;54.350;18.532;2023-03-14T01:02:11;9.40;99.90
19732;DHT22;10017;54.350;18.532;2023-03-14T01:04:43;9.50;99.90
19732;DHT22;10017;54.350;18.532;2023-03-14T01:07:20;9.40;99.90
19732;DHT22;10017;54.350;18.532;2023-03-14T01:09:52;9.40;99.90
19732;DHT22;10017;54.350;18.532;2023-03-14T01:12:24;9.40;99.90
19732;DHT22;10017;54.350;18.532;2023-03-14T01:14:56;9.40;99.90
19732;DHT22;10017;54.350;18.532;2023-03-14T01:17:28;9.40;99.90
19732;DHT22;10017;54.350;18.532;2023-03-14T01:20:02;9.40;99.90
19732;DHT22;10017;54.350;18.532;2023-03-14T01:22:36;9.40;99.90
19732;DHT22;10017;54.350;18.532;2023-03-14T01:25:13;9.40;99.90
19732;DHT22;10017;54.350;18.532;2023-03-14T01:27:45;9.40;99.90
19732;DHT22;10017;54.350;18.532;2023-03-14T01:30:17;9.40;99.90
19732;DHT22;10017;54.350;18.532;2023-03-14T01:32:48;9.40;99.90
19732;DHT22;10017;54.350;18.532;2023-03-14T01:35:20;9.40;99.90
19732;DHT22;10017;54.350;18.532;2023-03-14T01:37:54;9.40;99.90
19732;DHT22;10017;54.350;18.532;2023-03-14T01:40:26;9.30;99.90
19732;DHT22;10017;54.350;18.532;2023-03-14T01:43:05;9.30;99.90
19732;DHT22;10017;54.350;18.532;2023-03-14T01:48:28;9.30;99.90
19732;DHT22;10017;54.350;18.532;2023-03-14T01:51:02;9.30;99.90
19732;DHT22;10017;54.350;18.532;2023-03-14T01:53:36;9.30;99.90
19732;DHT22;10017;54.350;18.532;2023-03-14T01:56:08;9.30;99.90
19732;DHT22;10017;54.350;18.532;2023-03-14T01:58:45;9.30;99.90
19732;DHT22;10017;54.350;18.532;2023-03-14T02:01:18;9.30;99.90
19732;DHT22;10017;54.350;18.532;2023-03-14T02:03:55;9.20;99.90
19732;DHT22;10017;54.350;18.532;2023-03-14T02:06:29;9.20;99.90
19732;DHT22;10017;54.350;18.532;2023-03-14T02:09:03;9.20;99.90
19732;DHT22;10017;54.350;18.532;2023-03-14T02:11:35;9.30;99.90
19732;DHT22;10017;54.350;18.532;2023-03-14T02:14:09;9.20;99.90
19732;DHT22;10017;54.350;18.532;2023-03-14T02:16:45;9.30;99.90
19732;DHT22;10017;54.350;18.532;2023-03-14T02:19:21;9.20;99.90
19732;DHT22;10017;54.350;18.532;2023-03-14T02:21:57;9.20;99.90
19732;DHT22;10017;54.350;18.532;2023-03-14T02:27:06;9.20;99.90
19732;DHT22;10017;54.350;18.532;2023-03-14T02:30:21;9.20;99.90
19732;DHT22;10017;54.350;18.532;2023-03-14T02:32:36;9.20;99.90
19732;DHT22;10017;54.350;18.532;2023-03-14T02:35:12;9.20;99.90
19732;DHT22;10017;54.350;18.532;2023-03-14T02:40:17;9.20;99.90
19732;DHT22;10017;54.350;18.532;2023-03-14T02:42:49;9.20;99.90
19732;DHT22;10017;54.350;18.532;2023-03-14T02:47:54;9.20;99.90
19732;DHT22;10017;54.350;18.532;2023-03-14T02:50:26;9.20;99.90
19732;DHT22;10017;54.350;18.532;2023-03-14T02:53:00;9.10;99.90
19732;DHT22;10017;54.350;18.532;2023-03-14T02:55:32;9.10;99.90
19732;DHT22;10017;54.350;18.532;2023-03-14T02:58:04;9.10;99.90
19732;DHT22;10017;54.350;18.532;2023-03-14T03:00:38;9.20;99.90
19732;DHT22;10017;54.350;18.532;2023-03-14T03:03:10;9.20;99.90
19732;DHT22;10017;54.350;18.532;2023-03-14T03:05:42;9.20;99.90
19732;DHT22;10017;54.350;18.532;2023-03-14T03:08:15;9.20;99.90
19732;DHT22;10017;54.350;18.532;2023-03-14T03:10:47;9.20;99.90
19732;DHT22;10017;54.350;18.532;2023-03-14T03:13:19;9.20;99.90
19732;DHT22;10017;54.350;18.532;2023-03-14T03:15:51;9.20;99.90
19732;DHT22;10017;54.350;18.532;2023-03-14T03:18:23;9.20;99.90
19732;DHT22;10017;54.350;18.532;2023-03-14T03:20:56;9.20;99.90
19732;DHT22;10017;54.350;18.532;2023-03-14T03:23:30;9.20;99.90
19732;DHT22;10017;54.350;18.532;2023-03-14T03:26:02;9.20;99.90
19732;DHT22;10017;54.350;18.532;2023-03-14T03:28:34;9.20;99.90
19732;DHT22;10017;54.350;18.532;2023-03-14T03:31:09;9.20;99.90
19732;DHT22;10017;54.350;18.532;2023-03-14T03:33:41;9.30;99.90
19732;DHT22;10017;54.350;18.532;2023-03-14T03:36:13;9.20;99.90
19732;DHT22;10017;54.350;18.532;2023-03-14T03:38:48;9.30;99.90
19732;DHT22;10017;54.350;18.532;2023-03-14T03:41:20;9.20;99.90
19732;DHT22;10017;54.350;18.532;2023-03-14T03:43:55;9.20;99.90
19732;DHT22;10017;54.350;18.532;2023-03-14T03:46:27;9.20;99.90
19732;DHT22;10017;54.350;18.532;2023-03-14T03:48:59;9.20;99.90
19732;DHT22;10017;54.350;18.532;2023-03-14T03:51:31;9.20;99.90
19732;DHT22;10017;54.350;18.532;2023-03-14T03:54:05;9.10;99.90
19732;DHT22;10017;54.350;18.532;2023-03-14T03:56:37;9.10;99.90
19732;DHT22;10017;54.350;18.532;2023-03-14T03:59:09;9.20;99.90
19732;DHT22;10017;54.350;18.532;2023-03-14T04:01:40;9.20;99.90
19732;DHT22;10017;54.350;18.532;2023-03-14T04:04:13;9.30;99.90
19732;DHT22;10017;54.350;18.532;2023-03-14T04:06:47;9.30;99.90
19732;DHT22;10017;54.350;18.532;2023-03-14T04:09:19;9.40;99.90
19732;DHT22;10017;54.350;18.532;2023-03-14T04:11:51;9.40;99.90
19732;DHT22;10017;54.350;18.532;2023-03-14T04:14:23;9.40;99.90
19732;DHT22;10017;54.350;18.532;2023-03-14T04:16:55;9.40;99.90
19732;DHT22;10017;54.350;18.532;2023-03-14T04:19:27;9.40;99.90
19732;DHT22;10017;54.350;18.532;2023-03-14T04:22:01;9.40;99.90
19732;DHT22;10017;54.350;18.532;2023-03-14T04:24:32;9.40;99.90
19732;DHT22;10017;54.350;18.532;2023-03-14T04:27:04;9.40;99.90
19732;DHT22;10017;54.350;18.532;2023-03-14T04:29:36;9.50;99.90
19732;DHT22;10017;54.350;18.532;2023-03-14T04:32:08;9.40;99.90
19732;DHT22;10017;54.350;18.532;2023-03-14T04:34:40;9.40;99.90
19732;DHT22;10017;54.350;18.532;2023-03-14T04:37:12;9.40;99.90
19732;DHT22;10017;54.350;18.532;2023-03-14T04:39:44;9.40;99.90
19732;DHT22;10017;54.350;18.532;2023-03-14T04:42:16;9.40;99.90
19732;DHT22;10017;54.350;18.532;2023-03-14T04:44:48;9.50;99.90
19732;DHT22;10017;54.350;18.532;2023-03-14T04:47:21;9.40;99.90
19732;DHT22;10017;54.350;18.532;2023-03-14T04:49:53;9.40;99.90
19732;DHT22;10017;54.350;18.532;2023-03-14T04:52:27;9.40;99.90
19732;DHT22;10017;54.350;18.532;2023-03-14T04:54:59;9.40;99.90
19732;DHT22;10017;54.350;18.532;2023-03-14T04:57:31;9.40;99.90
19732;DHT22;10017;54.350;18.532;2023-03-14T05:00:03;9.40;99.90
19732;DHT22;10017;54.350;18.532;2023-03-14T05:02:38;9.40;99.90
19732;DHT22;10017;54.350;18.532;2023-03-14T05:05:10;9.40;99.90
19732;DHT22;10017;54.350;18.532;2023-03-14T05:07:42;9.40;99.90
19732;DHT22;10017;54.350;18.532;2023-03-14T05:10:14;9.30;99.90
19732;DHT22;10017;54.350;18.532;2023-03-14T05:12:49;9.30;99.90
19732;DHT22;10017;54.350;18.532;2023-03-14T05:15:21;9.30;99.90
19732;DHT22;10017;54.350;18.532;2023-03-14T05:17:55;9.30;99.90
19732;DHT22;10017;54.350;18.532;2023-03-14T05:20:27;9.20;99.90
19732;DHT22;10017;54.350;18.532;2023-03-14T05:22:59;9.20;99.90
19732;DHT22;10017;54.350;18.532;2023-03-14T05:25:30;9.20;99.90
19732;DHT22;10017;54.350;18.532;2023-03-14T05:28:03;9.20;99.90
19732;DHT22;10017;54.350;18.532;2023-03-14T05:30:35;9.20;99.90
19732;DHT22;10017;54.350;18.532;2023-03-14T05:33:07;9.10;99.90
19732;DHT22;10017;54.350;18.532;2023-03-14T05:35:39;9.10;99.90
19732;DHT22;10017;54.350;18.532;2023-03-14T05:38:10;9.10;99.90
19732;DHT22;10017;54.350;18.532;2023-03-14T05:40:42;9.10;99.90
19732;DHT22;10017;54.350;18.532;2023-03-14T05:43:15;9.10;99.90
19732;DHT22;10017;54.350;18.532;2023-03-14T05:45:47;9.10;99.90
19732;DHT22;10017;54.350;18.532;2023-03-14T05:48:22;9.10;99.90
19732;DHT22;10017;54.350;18.532;2023-03-14T05:50:55;9.10;99.90
19732;DHT22;10017;54.350;18.532;2023-03-14T05:53:27;9.20;99.90
19732;DHT22;10017;54.350;18.532;2023-03-14T05:56:00;9.20;99.90
19732;DHT22;10017;54.350;18.532;2023-03-14T05:58:32;9.20;99.90
19732;DHT22;10017;54.350;18.532;2023-03-14T06:01:04;9.30;99.90
19732;DHT22;10017;54.350;18.532;2023-03-14T06:03:37;9.30;99.90
19732;DHT22;10017;54.350;18.532;2023-03-14T06:06:08;9.30;99.90
19732;DHT22;10017;54.350;18.532;2023-03-14T06:08:42;9.40;99.90
19732;DHT22;10017;54.350;18.532;2023-03-14T06:11:14;9.40;99.90
19732;DHT22;10017;54.350;18.532;2023-03-14T06:13:46;9.40;99.90
19732;DHT22;10017;54.350;18.532;2023-03-14T06:16:18;9.50;99.90
19732;DHT22;10017;54.350;18.532;2023-03-14T06:18:50;9.50;99.90
19732;DHT22;10017;54.350;18.532;2023-03-14T06:21:22;9.50;99.90
19732;DHT22;10017;54.350;18.532;2023-03-14T06:23:54;9.50;99.90
19732;DHT22;10017;54.350;18.532;2023-03-14T06:26:26;9.60;99.90
19732;DHT22;10017;54.350;18.532;2023-03-14T06:28:58;9.60;99.90
19732;DHT22;10017;54.350;18.532;2023-03-14T06:31:34;9.60;99.90
19732;DHT22;10017;54.350;18.532;2023-03-14T06:34:06;9.70;99.90
19732;DHT22;10017;54.350;18.532;2023-03-14T06:36:38;9.70;99.90
19732;DHT22;10017;54.350;18.532;2023-03-14T06:39:09;9.80;99.90
19732;DHT22;10017;54.350;18.532;2023-03-14T06:41:41;9.80;99.90
19732;DHT22;10017;54.350;18.532;2023-03-14T06:44:18;9.80;99.90
19732;DHT22;10017;54.350;18.532;2023-03-14T06:46:50;9.80;99.90
19732;DHT22;10017;54.350;18.532;2023-03-14T06:49:21;9.90;99.90
19732;DHT22;10017;54.350;18.532;2023-03-14T06:51:53;9.90;99.90
19732;DHT22;10017;54.350;18.532;2023-03-14T06:54:25;9.90;99.90
19732;DHT22;10017;54.350;18.532;2023-03-14T06:56:57;10.00;99.90
19732;DHT22;10017;54.350;18.532;2023-03-14T06:59:29;10.00;99.90
19732;DHT22;10017;54.350;18.532;2023-03-14T07:02:01;10.10;99.90
19732;DHT22;10017;54.350;18.532;2023-03-14T07:04:32;10.20;99.90
19732;DHT22;10017;54.350;18.532;2023-03-14T07:07:05;10.20;99.90
19732;DHT22;10017;54.350;18.532;2023-03-14T07:09:37;10.20;99.90
19732;DHT22;10017;54.350;18.532;2023-03-14T07:12:08;10.30;99.90
19732;DHT22;10017;54.350;18.532;2023-03-14T07:14:40;10.30;99.90
19732;DHT22;10017;54.350;18.532;2023-03-14T07:17:12;10.30;99.90
19732;DHT22;10017;54.350;18.532;2023-03-14T07:19:46;10.40;99.90
19732;DHT22;10017;54.350;18.532;2023-03-14T07:22:18;10.40;99.90
19732;DHT22;10017;54.350;18.532;2023-03-14T07:24:50;10.40;99.90
19732;DHT22;10017;54.350;18.532;2023-03-14T07:27:22;10.50;99.90
19732;DHT22;10017;54.350;18.532;2023-03-14T07:29:54;10.60;99.90
19732;DHT22;10017;54.350;18.532;2023-03-14T07:32:25;10.70;99.90
19732;DHT22;10017;54.350;18.532;2023-03-14T07:34:57;11.00;99.90
19732;DHT22;10017;54.350;18.532;2023-03-14T07:37:31;11.20;99.90
19732;DHT22;10017;54.350;18.532;2023-03-14T07:40:03;11.30;99.90
19732;DHT22;10017;54.350;18.532;2023-03-14T07:42:38;11.50;99.90
19732;DHT22;10017;54.350;18.532;2023-03-14T07:45:10;11.70;99.90
19732;DHT22;10017;54.350;18.532;2023-03-14T07:47:42;11.80;99.90
19732;DHT22;10017;54.350;18.532;2023-03-14T07:50:14;11.90;99.90
19732;DHT22;10017;54.350;18.532;2023-03-14T07:52:46;12.00;99.90
19732;DHT22;10017;54.350;18.532;2023-03-14T07:55:20;12.10;99.90
19732;DHT22;10017;54.350;18.532;2023-03-14T07:57:52;12.10;99.90
19732;DHT22;10017;54.350;18.532;2023-03-14T08:00:26;12.10;99.90
19732;DHT22;10017;54.350;18.532;2023-03-14T08:02:59;12.20;99.90
19732;DHT22;10017;54.350;18.532;2023-03-14T08:05:30;12.20;99.90
19732;DHT22;10017;54.350;18.532;2023-03-14T08:08:03;12.30;99.90
19732;DHT22;10017;54.350;18.532;2023-03-14T08:10:35;12.30;99.90
19732;DHT22;10017;54.350;18.532;2023-03-14T08:13:06;12.30;99.90
19732;DHT22;10017;54.350;18.532;2023-03-14T08:15:38;12.30;99.90
19732;DHT22;10017;54.350;18.532;2023-03-14T08:18:10;12.20;99.90
19732;DHT22;10017;54.350;18.532;2023-03-14T08:20:42;12.10;99.90
19732;DHT22;10017;54.350;18.532;2023-03-14T08:23:14;12.10;99.90
19732;DHT22;10017;54.350;18.532;2023-03-14T08:25:47;12.00;99.90
19732;DHT22;10017;54.350;18.532;2023-03-14T08:28:22;12.00;99.90
19732;DHT22;10017;54.350;18.532;2023-03-14T08:30:54;12.10;99.90
19732;DHT22;10017;54.350;18.532;2023-03-14T08:33:27;12.10;99.90
19732;DHT22;10017;54.350;18.532;2023-03-14T08:36:00;12.20;99.90
19732;DHT22;10017;54.350;18.532;2023-03-14T08:38:32;12.20;99.90
19732;DHT22;10017;54.350;18.532;2023-03-14T08:41:04;12.20;99.90
19732;DHT22;10017;54.350;18.532;2023-03-14T08:43:36;12.20;99.90
19732;DHT22;10017;54.350;18.532;2023-03-14T08:46:08;12.10;99.90
19732;DHT22;10017;54.350;18.532;2023-03-14T08:48:40;12.10;99.90
19732;DHT22;10017;54.350;18.532;2023-03-14T08:51:12;12.00;99.90
19732;DHT22;10017;54.350;18.532;2023-03-14T08:53:47;12.00;99.90
19732;DHT22;10017;54.350;18.532;2023-03-14T08:56:19;12.00;99.90
19732;DHT22;10017;54.350;18.532;2023-03-14T08:58:51;12.10;99.90
19732;DHT22;10017;54.350;18.532;2023-03-14T09:01:23;12.10;99.90
19732;DHT22;10017;54.350;18.532;2023-03-14T09:03:56;12.20;99.90
19732;DHT22;10017;54.350;18.532;2023-03-14T09:06:31;12.30;99.90
19732;DHT22;10017;54.350;18.532;2023-03-14T09:09:03;12.40;99.90
19732;DHT22;10017;54.350;18.532;2023-03-14T09:11:35;12.40;99.90
19732;DHT22;10017;54.350;18.532;2023-03-14T09:14:07;12.60;99.90
19732;DHT22;10017;54.350;18.532;2023-03-14T09:16:39;12.60;99.90
19732;DHT22;10017;54.350;18.532;2023-03-14T09:19:13;12.80;99.90
19732;DHT22;10017;54.350;18.532;2023-03-14T09:21:45;12.80;99.90
19732;DHT22;10017;54.350;18.532;2023-03-14T09:24:17;12.80;99.90
19732;DHT22;10017;54.350;18.532;2023-03-14T09:26:49;12.80;99.90
19732;DHT22;10017;54.350;18.532;2023-03-14T09:29:23;12.80;99.90
19732;DHT22;10017;54.350;18.532;2023-03-14T09:31:58;12.80;99.90
19732;DHT22;10017;54.350;18.532;2023-03-14T09:34:30;12.90;99.90
19732;DHT22;10017;54.350;18.532;2023-03-14T09:37:02;12.80;99.90
19732;DHT22;10017;54.350;18.532;2023-03-14T09:39:34;12.80;99.90
19732;DHT22;10017;54.350;18.532;2023-03-14T09:42:06;12.80;99.90
19732;DHT22;10017;54.350;18.532;2023-03-14T09:44:39;12.80;99.90
19732;DHT22;10017;54.350;18.532;2023-03-14T09:47:18;12.80;99.90
19732;DHT22;10017;54.350;18.532;2023-03-14T09:49:51;12.80;99.90
19732;DHT22;10017;54.350;18.532;2023-03-14T09:52:30;12.80;99.90
19732;DHT22;10017;54.350;18.532;2023-03-14T09:55:03;12.80;99.90
19732;DHT22;10017;54.350;18.532;2023-03-14T09:57:35;12.70;99.90
19732;DHT22;10017;54.350;18.532;2023-03-14T10:02:55;12.60;99.90
19732;DHT22;10017;54.350;18.532;2023-03-14T10:05:28;12.30;99.90
19732;DHT22;10017;54.350;18.532;2023-03-14T10:08:02;12.20;99.90
19732;DHT22;10017;54.350;18.532;2023-03-14T10:10:34;12.10;99.90
19732;DHT22;10017;54.350;18.532;2023-03-14T10:15:41;11.90;99.90
19732;DHT22;10017;54.350;18.532;2023-03-14T10:18:15;11.80;99.90
19732;DHT22;10017;54.350;18.532;2023-03-14T10:20:48;11.80;99.90
19732;DHT22;10017;54.350;18.532;2023-03-14T10:23:22;11.70;99.90
19732;DHT22;10017;54.350;18.532;2023-03-14T10:25:59;11.70;99.90
19732;DHT22;10017;54.350;18.532;2023-03-14T10:28:33;11.80;99.90
19732;DHT22;10017;54.350;18.532;2023-03-14T10:31:05;11.80;99.90
19732;DHT22;10017;54.350;18.532;2023-03-14T10:33:37;11.90;99.90
19732;DHT22;10017;54.350;18.532;2023-03-14T10:38:48;11.90;99.90
19732;DHT22;10017;54.350;18.532;2023-03-14T10:41:26;11.90;99.90
19732;DHT22;10017;54.350;18.532;2023-03-14T10:43:58;12.00;99.90
19732;DHT22;10017;54.350;18.532;2023-03-14T10:46:33;12.10;99.90
19732;DHT22;10017;54.350;18.532;2023-03-14T10:49:05;12.20;99.90
19732;DHT22;10017;54.350;18.532;2023-03-14T10:51:38;12.20;99.90
19732;DHT22;10017;54.350;18.532;2023-03-14T10:54:14;12.30;99.90
19732;DHT22;10017;54.350;18.532;2023-03-14T10:56:46;12.30;99.90
19732;DHT22;10017;54.350;18.532;2023-03-14T10:59:29;12.20;99.90
19732;DHT22;10017;54.350;18.532;2023-03-14T11:07:43;12.20;99.90
19732;DHT22;10017;54.350;18.532;2023-03-14T11:10:20;12.10;99.90
19732;DHT22;10017;54.350;18.532;2023-03-14T11:20:42;12.40;99.90
19732;DHT22;10017;54.350;18.532;2023-03-14T11:23:23;12.60;99.90
19732;DHT22;10017;54.350;18.532;2023-03-14T11:26:10;12.80;99.90
19732;DHT22;10017;54.350;18.532;2023-03-14T11:28:50;13.00;99.90
19732;DHT22;10017;54.350;18.532;2023-03-14T11:31:30;13.10;99.90
19732;DHT22;10017;54.350;18.532;2023-03-14T11:36:46;13.00;99.90
19732;DHT22;10017;54.350;18.532;2023-03-14T11:39:20;13.00;99.90
19732;DHT22;10017;54.350;18.532;2023-03-14T11:41:54;12.80;99.90
19732;DHT22;10017;54.350;18.532;2023-03-14T11:44:36;12.80;99.90
19732;DHT22;10017;54.350;18.532;2023-03-14T11:50:08;13.00;99.90
19732;DHT22;10017;54.350;18.532;2023-03-14T11:52:49;13.20;99.90
19732;DHT22;10017;54.350;18.532;2023-03-14T11:55:28;13.40;99.90
19732;DHT22;10017;54.350;18.532;2023-03-14T12:00:56;13.80;99.90
19732;DHT22;10017;54.350;18.532;2023-03-14T12:08:53;13.70;99.90
19732;DHT22;10017;54.350;18.532;2023-03-14T12:14:23;13.80;99.90
19732;DHT22;10017;54.350;18.532;2023-03-14T12:17:04;13.90;99.90
19732;DHT22;10017;54.350;18.532;2023-03-14T12:19:37;13.80;99.90
19732;DHT22;10017;54.350;18.532;2023-03-14T12:24:54;13.70;99.90
19732;DHT22;10017;54.350;18.532;2023-03-14T12:30:21;13.50;99.90
19732;DHT22;10017;54.350;18.532;2023-03-14T12:35:50;13.60;99.90
19732;DHT22;10017;54.350;18.532;2023-03-14T12:41:04;13.90;99.90
19732;DHT22;10017;54.350;18.532;2023-03-14T12:43:40;14.00;99.90
19732;DHT22;10017;54.350;18.532;2023-03-14T12:46:19;13.90;99.90
19732;DHT22;10017;54.350;18.532;2023-03-14T12:51:42;13.90;99.90
19732;DHT22;10017;54.350;18.532;2023-03-14T12:59:48;14.00;99.90
19732;DHT22;10017;54.350;18.532;2023-03-14T13:02:24;14.00;99.90
19732;DHT22;10017;54.350;18.532;2023-03-14T13:05:04;13.80;99.90
19732;DHT22;10017;54.350;18.532;2023-03-14T13:12:57;13.90;99.90
19732;DHT22;10017;54.350;18.532;2023-03-14T13:15:34;13.90;99.90
19732;DHT22;10017;54.350;18.532;2023-03-14T13:20:44;13.80;99.90
19732;DHT22;10017;54.350;18.532;2023-03-14T13:25:52;14.00;99.90
19732;DHT22;10017;54.350;18.532;2023-03-14T13:28:24;14.10;99.90
19732;DHT22;10017;54.350;18.532;2023-03-14T13:30:58;14.20;99.90
19732;DHT22;10017;54.350;18.532;2023-03-14T13:33:30;14.10;99.90
19732;DHT22;10017;54.350;18.532;2023-03-14T13:36:08;13.90;99.90
19732;DHT22;10017;54.350;18.532;2023-03-14T13:38:41;13.80;99.90
19732;DHT22;10017;54.350;18.532;2023-03-14T13:41:13;13.70;99.90
19732;DHT22;10017;54.350;18.532;2023-03-14T13:43:47;13.60;99.90
19732;DHT22;10017;54.350;18.532;2023-03-14T13:46:20;13.50;99.90
19732;DHT22;10017;54.350;18.532;2023-03-14T13:48:54;13.60;99.90
19732;DHT22;10017;54.350;18.532;2023-03-14T13:51:27;13.70;99.90
19732;DHT22;10017;54.350;18.532;2023-03-14T13:54:11;13.70;99.90
19732;DHT22;10017;54.350;18.532;2023-03-14T13:56:44;13.90;99.90
19732;DHT22;10017;54.350;18.532;2023-03-14T13:59:23;14.10;99.90
19732;DHT22;10017;54.350;18.532;2023-03-14T14:01:55;14.30;99.90
19732;DHT22;10017;54.350;18.532;2023-03-14T14:04:28;14.30;99.90
19732;DHT22;10017;54.350;18.532;2023-03-14T14:07:01;14.20;99.90
19732;DHT22;10017;54.350;18.532;2023-03-14T14:09:40;14.10;99.90
19732;DHT22;10017;54.350;18.532;2023-03-14T14:12:15;14.00;99.90
19732;DHT22;10017;54.350;18.532;2023-03-14T14:17:21;14.00;99.90
19732;DHT22;10017;54.350;18.532;2023-03-14T14:19:55;14.00;99.90
19732;DHT22;10017;54.350;18.532;2023-03-14T14:22:29;14.00;99.90
19732;DHT22;10017;54.350;18.532;2023-03-14T14:25:01;14.10;99.90
19732;DHT22;10017;54.350;18.532;2023-03-14T14:27:36;14.00;99.90
19732;DHT22;10017;54.350;18.532;2023-03-14T14:32:50;13.90;99.90
19732;DHT22;10017;54.350;18.532;2023-03-14T14:37:54;13.50;99.90
19732;DHT22;10017;54.350;18.532;2023-03-14T14:40:30;13.40;99.90
19732;DHT22;10017;54.350;18.532;2023-03-14T14:43:05;13.30;99.90
19732;DHT22;10017;54.350;18.532;2023-03-14T14:45:37;13.20;99.90
19732;DHT22;10017;54.350;18.532;2023-03-14T14:48:09;13.10;99.90
19732;DHT22;10017;54.350;18.532;2023-03-14T14:50:49;12.90;99.90
19732;DHT22;10017;54.350;18.532;2023-03-14T14:53:23;12.90;99.90
19732;DHT22;10017;54.350;18.532;2023-03-14T14:55:57;12.80;99.90
19732;DHT22;10017;54.350;18.532;2023-03-14T14:58:37;12.70;99.90
19732;DHT22;10017;54.350;18.532;2023-03-14T15:03:44;12.60;99.90
19732;DHT22;10017;54.350;18.532;2023-03-14T15:06:21;12.50;99.90
19732;DHT22;10017;54.350;18.532;2023-03-14T15:08:55;12.50;99.90
19732;DHT22;10017;54.350;18.532;2023-03-14T15:11:28;12.50;99.90
19732;DHT22;10017;54.350;18.532;2023-03-14T15:14:00;12.50;99.90
19732;DHT22;10017;54.350;18.532;2023-03-14T15:16:32;12.60;99.90
19732;DHT22;10017;54.350;18.532;2023-03-14T15:19:09;12.50;99.90
19732;DHT22;10017;54.350;18.532;2023-03-14T15:21:55;12.50;99.90
19732;DHT22;10017;54.350;18.532;2023-03-14T15:24:29;12.50;99.90
19732;DHT22;10017;54.350;18.532;2023-03-14T15:27:01;12.40;99.90
19732;DHT22;10017;54.350;18.532;2023-03-14T15:29:33;12.30;99.90
19732;DHT22;10017;54.350;18.532;2023-03-14T15:32:05;12.30;99.90
19732;DHT22;10017;54.350;18.532;2023-03-14T15:34:37;12.20;99.90
19732;DHT22;10017;54.350;18.532;2023-03-14T15:37:12;12.20;99.90
19732;DHT22;10017;54.350;18.532;2023-03-14T15:39:44;12.20;99.90
19732;DHT22;10017;54.350;18.532;2023-03-14T15:42:16;12.10;99.90
19732;DHT22;10017;54.350;18.532;2023-03-14T15:44:48;12.10;99.90
19732;DHT22;10017;54.350;18.532;2023-03-14T15:47:22;12.00;99.90
19732;DHT22;10017;54.350;18.532;2023-03-14T15:49:54;12.00;99.90
19732;DHT22;10017;54.350;18.532;2023-03-14T15:52:25;12.00;99.90
19732;DHT22;10017;54.350;18.532;2023-03-14T15:54:57;12.00;99.90
19732;DHT22;10017;54.350;18.532;2023-03-14T15:57:29;11.90;99.90
19732;DHT22;10017;54.350;18.532;2023-03-14T16:00:01;11.80;99.90
19732;DHT22;10017;54.350;18.532;2023-03-14T16:02:35;11.70;99.90
19732;DHT22;10017;54.350;18.532;2023-03-14T16:05:12;11.60;99.90
19732;DHT22;10017;54.350;18.532;2023-03-14T16:07:44;11.40;99.90
19732;DHT22;10017;54.350;18.532;2023-03-14T16:10:16;11.30;99.90
19732;DHT22;10017;54.350;18.532;2023-03-14T16:12:49;11.10;99.90
19732;DHT22;10017;54.350;18.532;2023-03-14T16:15:21;10.90;99.90
19732;DHT22;10017;54.350;18.532;2023-03-14T16:17:53;10.80;99.90
19732;DHT22;10017;54.350;18.532;2023-03-14T16:20:25;10.80;99.90
19732;DHT22;10017;54.350;18.532;2023-03-14T16:23:02;10.70;99.90
19732;DHT22;10017;54.350;18.532;2023-03-14T16:25:33;10.70;99.90
19732;DHT22;10017;54.350;18.532;2023-03-14T16:28:05;10.60;99.90
19732;DHT22;10017;54.350;18.532;2023-03-14T16:30:41;10.60;99.90
19732;DHT22;10017;54.350;18.532;2023-03-14T16:33:14;10.50;99.90
19732;DHT22;10017;54.350;18.532;2023-03-14T16:35:53;10.50;99.90
19732;DHT22;10017;54.350;18.532;2023-03-14T16:38:25;10.40;99.90
19732;DHT22;10017;54.350;18.532;2023-03-14T16:41:03;10.30;99.90
19732;DHT22;10017;54.350;18.532;2023-03-14T16:43:35;10.20;99.90
19732;DHT22;10017;54.350;18.532;2023-03-14T16:46:11;10.10;99.90
19732;DHT22;10017;54.350;18.532;2023-03-14T16:48:43;10.00;99.90
19732;DHT22;10017;54.350;18.532;2023-03-14T16:51:18;9.80;99.90
19732;DHT22;10017;54.350;18.532;2023-03-14T16:53:52;9.80;99.90
19732;DHT22;10017;54.350;18.532;2023-03-14T16:56:24;9.70;99.90
19732;DHT22;10017;54.350;18.532;2023-03-14T16:58:56;9.70;99.90
19732;DHT22;10017;54.350;18.532;2023-03-14T17:01:28;9.70;99.90
19732;DHT22;10017;54.350;18.532;2023-03-14T17:04:00;9.70;99.90
19732;DHT22;10017;54.350;18.532;2023-03-14T17:06:32;9.70;99.90
19732;DHT22;10017;54.350;18.532;2023-03-14T17:09:04;9.80;99.90
19732;DHT22;10017;54.350;18.532;2023-03-14T17:11:36;9.80;99.90
19732;DHT22;10017;54.350;18.532;2023-03-14T17:14:08;9.70;99.90
19732;DHT22;10017;54.350;18.532;2023-03-14T17:16:40;9.70;99.90
19732;DHT22;10017;54.350;18.532;2023-03-14T17:19:11;9.70;99.90
19732;DHT22;10017;54.350;18.532;2023-03-14T17:21:46;9.70;99.90
19732;DHT22;10017;54.350;18.532;2023-03-14T17:24:18;9.60;99.90
19732;DHT22;10017;54.350;18.532;2023-03-14T17:26:50;9.60;99.90
19732;DHT22;10017;54.350;18.532;2023-03-14T17:29:22;9.60;99.90